createdAt,value
2023-01-28T00:06:46.368Z,540.0368
2023-01-28T00:21:48.628Z,317.73251
2023-01-28T00:36:50.895Z,109.52554
2023-01-28T00:51:53.180Z,19.5194
2023-01-28T01:06:55.454Z,1.08441
2023-01-28T01:21:57.682Z,0
2023-01-28T01:36:59.955Z,0
2023-01-28T01:52:02.242Z,0
2023-01-28T02:07:04.689Z,0
2023-01-28T02:22:06.900Z,0
2023-01-28T02:37:09.145Z,0
2023-01-28T02:52:11.426Z,0
2023-01-28T03:07:13.675Z,0
2023-01-28T03:22:15.941Z,0
2023-01-28T03:37:18.167Z,0
2023-01-28T03:52:20.388Z,0
2023-01-28T04:07:22.616Z,0
2023-01-28T04:22:24.832Z,0
2023-01-28T04:37:27.255Z,0
2023-01-28T04:52:29.507Z,0
2023-01-28T05:07:31.757Z,0
2023-01-28T05:22:34.243Z,0
2023-01-28T05:37:36.738Z,0
2023-01-28T05:52:39.172Z,0
2023-01-28T06:07:41.464Z,0
2023-01-28T06:22:44.588Z,0
2023-01-28T06:37:47.282Z,0
2023-01-28T06:52:49.634Z,0
2023-01-28T07:07:51.781Z,0
2023-01-28T07:22:53.993Z,0
2023-01-28T07:37:56.254Z,0
2023-01-28T07:52:58.545Z,0
2023-01-28T08:08:00.776Z,0
2023-01-28T08:23:03.149Z,0
2023-01-28T08:38:05.385Z,0
2023-01-28T08:53:07.600Z,0
2023-01-28T09:08:09.826Z,0
2023-01-28T09:23:12.079Z,0
2023-01-28T09:38:14.311Z,0
2023-01-28T09:53:16.523Z,0
2023-01-28T10:08:18.810Z,0
2023-01-28T10:23:21.061Z,0
2023-01-28T10:38:23.338Z,0
2023-01-28T10:53:27.136Z,0
2023-01-28T11:08:29.501Z,0
2023-01-28T11:23:31.788Z,0
2023-01-28T11:38:34.064Z,0
2023-01-28T11:53:36.280Z,0
2023-01-28T12:08:38.681Z,0
2023-01-28T12:23:40.977Z,0
2023-01-28T12:38:43.332Z,0
2023-01-28T12:53:45.619Z,0
2023-01-28T13:08:48.042Z,0
2023-01-28T13:23:50.280Z,0
2023-01-28T13:38:52.570Z,0
2023-01-28T13:53:54.753Z,0
2023-01-28T14:08:56.967Z,0
2023-01-28T14:23:59.360Z,0
2023-01-28T14:39:01.675Z,0
2023-01-28T14:54:03.851Z,0
2023-01-28T15:09:06.082Z,3.25323
2023-01-28T15:24:08.372Z,29.2791
2023-01-28T15:39:10.814Z,87.83731
2023-01-28T15:54:13.046Z,160.49287
2023-01-28T16:09:15.305Z,127.96053
2023-01-28T16:24:17.556Z,206.03815
2023-01-28T16:39:19.806Z,162.66168
2023-01-28T16:54:22.128Z,302.55075
2023-01-28T17:09:24.386Z,908.73663
2023-01-28T17:24:26.686Z,992.23633
2023-01-28T17:39:29.118Z,1393.46851
2023-01-28T17:54:31.615Z,1038.86597
2023-01-28T18:09:33.846Z,1035.61279
2023-01-28T18:24:36.191Z,1073.56714
2023-01-28T18:39:38.438Z,2166.65381
2023-01-28T18:54:40.920Z,3984.12695
2023-01-28T19:09:43.121Z,6694.0708
2023-01-28T19:24:45.430Z,8854.21777
2023-01-28T19:39:47.984Z,12970.64355
2023-01-28T19:54:50.245Z,17267.08008
2023-01-28T20:09:52.600Z,13927.09375
2023-01-28T20:24:54.837Z,13159.33105
2023-01-28T20:39:57.126Z,18671.39258
2023-01-28T20:54:59.430Z,7222.1792
2023-01-28T21:10:02.522Z,6110.65723
2023-01-28T21:25:05.624Z,5602.06836
2023-01-28T21:40:08.278Z,7218.92578
2023-01-28T21:55:10.485Z,5226.8623
2023-01-28T22:10:12.824Z,6021.73584
2023-01-28T22:25:15.123Z,4908.04541
2023-01-28T22:40:17.706Z,5464.34814
2023-01-28T22:55:20.251Z,3930.99072
2023-01-28T23:10:22.482Z,3761.82275
2023-01-28T23:25:24.748Z,1896.63525
2023-01-28T23:40:27.136Z,1598.42224
2023-01-28T23:55:29.460Z,930.42487
